x

Buoy I01 - Eastern Maine Shelf (44034) Wave Buoy

3:04 - Fri 1st Aug 2014 All times are EDT. -4 hours from GMT.

  • Sig Wave height 3.6ft
  • Peak Period 8s
  • Wind
    9mph, 11mph gusts
  • Sea Temp 52°f
  • Ar Temp 56°f
  • Sea Pressure 1020.2mb
  • Buoy I01 - Eastern Maine Shelf
  • Buoy I01 - Eastern Maine Shelf

More Historic Weather Station data

Upgrade to MSW Pro to gain access to the past 30 days of data for over 8000 Wavebouys and Weather Stations around the globe.

Join Pro

Comparision Forecast

View Surf forecast
   
Sex 08/01 3:04 3.5ft 8s 9 11 mph 1020.2mb 52f 56f
2:04 3.5ft 8s 9 11 mph 1020.4mb 51f 56f
1:04 3.5ft 8s 11
mph
1020.7mb 51f 56f
12:04 3.5ft 8s 9 11 mph 1020.7mb 51f 56f
Qui 07/31 11:04 3.5ft 8s 9
mph
1020.5mb 52f 56f
10:04 4ft 8s 9
mph
1020.9mb 52f 56f
9:04 4ft 8s 7 9 mph 1020.9mb 53f 56f
8:04 3.5ft 8s 7 9 mph 1020.2mb 53f 56f
6:04 4.5ft 8s 7 9 mph 1019.7mb 51f 57f
5:04 4ft 11s 7
mph
1019.5mb 53f 57f
4:04 4.5ft 8s 4 7 mph 1019.3mb 54f 59f
3:04 4.5ft 8s 7
mph
1019.2mb 55f 58f
2:04 3.5ft 6s 4
mph
1019.4mb 54f 60f
1:04 3.5ft 8s 4
mph
1019.5mb 55f 58f
12:04 4.5ft 11s 7
mph
1019.6mb 56f 56f
11:04 4.5ft 8s 7
mph
1019.8mb 55f 56f
10:04 4.5ft 8s 4
mph
1019.6mb 55f 56f
9:04 5ft 8s 7
mph
1019.5mb 54f 55f
8:04 4.5ft 8s 4 7 mph 1019.3mb 54f 55f
7:04 5ft 8s 4 7 mph 1019mb 53f 55f
6:04 6ft 11s 2 4 mph 1018.5mb 53f 55f
5:04 4ft 8s 4 7 mph 1018mb 53f 55f
4:04 4.5ft 8s 4
mph
1017.2mb 52f 55f
3:04 4.5ft 11s 2 4 mph 1016.7mb 53f 55f
2:04 4.5ft 8s 2 4 mph 1016.9mb 52f 54f
1:04 4.5ft 8s 2
mph
1016.5mb 53f 54f
12:04 4.5ft 8s 2
mph
1016.6mb 53f 54f
Qua 07/30 11:04 3.5ft 8s 2 4 mph 1016.6mb 53f 54f
10:04 3.5ft 8s 4 7 mph 1016.3mb 53f 54f
9:04 4ft 8s 4 7 mph 1016.6mb 53f 55f
8:04 3.5ft 8s 4 7 mph 1016.2mb 54f 55f
7:04 3.5ft 8s 4 7 mph 1015.9mb 53f 54f
5:04 4ft 8s 9
mph
1015.1mb 52f 54f
4:04 3.5ft 11s 7 9 mph 1015.4mb 52f 54f
3:04 3.5ft 11s 7 9 mph 1015.3mb 53f 55f
2:04 3.5ft 8s 9
mph
1015.6mb 53f 55f
1:04 4ft 8s 7 9 mph 1015.9mb 53f 55f
12:04 4ft 11s 7 9 mph 1016.3mb 53f 55f
11:04 4.5ft 8s 4
mph
1016.4mb 52f 55f
10:04 4.5ft 8s 4 7 mph 1016.6mb 53f 55f
9:04 4.5ft 8s 4
mph
1016.3mb 53f 55f
8:04 4ft 8s 4 7 mph 1016.3mb 53f 54f
7:04 4.5ft 8s 7
mph
1016.2mb 54f 54f
6:04 4ft 8s 4
mph
1015.4mb 54f 54f
5:04 4.5ft 11s 4
mph
1014.9mb 54f 55f
4:04 5ft 8s 2 4 mph 1014.5mb 54f 56f
3:04 4.5ft 11s 4
mph
1013.9mb 54f 57f
2:04 4.5ft 8s 4 7 mph 1013.9mb 54f 57f
1:04 5ft 8s 7 9 mph 1013.7mb 54f 57f
12:04 5ft 8s 7
mph
1013mb 54f 57f
Ter 07/29 11:04 4.5ft 8s 4 7 mph 1012.8mb 54f 57f
10:04 4.5ft 8s 4
mph
1012.8mb 55f 57f
9:04 5.5ft 8s 7
mph
1012.4mb 55f 57f
8:04 5.5ft 8s 7
mph
1012.1mb 55f 57f
7:04 6ft 8s 7 9 mph 1011.3mb 55f 59f
6:04 6ft 8s 9 11 mph 1010.7mb 56f 59f
5:04 5.5ft 8s 9 11 mph 1010.1mb 56f 59f
4:04 6ft 8s 9 11 mph 1009.2mb 55f 59f
3:04 5.5ft 8s 9
mph
1008.5mb 56f 59f
2:04 6ft 8s 9 11 mph 1007.6mb 55f 58f
1:04 6ft 8s 11 13 mph 1007mb 55f 58f
12:04 6ft 6s 13 16 mph 1006.2mb 54f 58f
11:04 5ft 8s 13 16 mph 1005.1mb 54f 58f
10:04 4.5ft 6s 11 13 mph 1004.5mb 54f 57f
9:04 5.5ft 6s 11 13 mph 1003.4mb 54f 57f
8:04 5.5ft 8s 9
mph
1002.7mb 54f 57f
7:04 5ft 6s 9 11 mph 1002.2mb 53f 57f
6:04 5ft 6s 13 16 mph 1001.5mb 52f 58f
5:04 4.5ft 6s 13
mph
1000.5mb 52f 57f
4:04 5.5ft 6s 16 18 mph 999.8mb 52f 58f
3:04 6ft 8s 18 20 mph 999.1mb 52f 58f
2:04 5.5ft 6s 16 18 mph 998.8mb 52f 58f
1:04 5.5ft 6s 18 20 mph 998.3mb 53f 59f
12:04 4.5ft 6s 20 22 mph 998mb 53f 59f
Seg 07/28 11:04 3.5ft 6s 18
mph
998.4mb 53f 59f
10:04 3.5ft 5s 13 16 mph 998.5mb 53f 58f
9:04 3.5ft 5s 13 16 mph 999.1mb 53f 58f
8:04 3.5ft 5s 16 18 mph 999mb 53f 59f
7:04 3.5ft 5s 13 16 mph 999.7mb 53f 58f
6:04 3.5ft 5s 11 13 mph 1000.1mb 54f 58f
5:04 3.5ft 5s 13
mph
1000.4mb 54f 59f
4:04 3.5ft 5s 13 16 mph 1001.2mb 54f 59f
3:04 2.5ft 5s 11 13 mph 1001.4mb 54f 59f
2:04 3ft 5s 9 11 mph 1002mb 54f 58f
1:04 3ft 5s 16 18 mph 1003.4mb 55f 59f
12:04 2.5ft 5s 13
mph
1004.3mb 53f 58f
11:04 2.5ft 6s 11 13 mph 1003.8mb 55f 58f
10:04 2.5ft 5s 11 13 mph 1004.3mb 56f 58f
9:04 3ft 5s 9
mph
1004.8mb 55f 57f